createdAt,value
2018-06-27T00:00:16.876Z,1019.14
2018-06-27T00:00:43.024Z,1019.15
2018-06-27T00:01:09.160Z,1019.14
2018-06-27T00:01:35.303Z,1019.13
2018-06-27T00:02:01.440Z,1019.17
2018-06-27T00:02:27.599Z,1019.13
2018-06-27T00:02:53.736Z,1019.14
2018-06-27T00:03:19.877Z,1019.16
2018-06-27T00:03:46.021Z,1019.14
2018-06-27T00:04:12.153Z,1019.16
2018-06-27T00:04:38.293Z,1019.18
2018-06-27T00:05:04.432Z,1019.12
2018-06-27T00:05:30.567Z,1019.16
2018-06-27T00:05:56.710Z,1019.15
2018-06-27T00:06:22.872Z,1019.14
2018-06-27T00:06:49.037Z,1019.14
2018-06-27T00:07:15.183Z,1019.13
2018-06-27T00:07:41.318Z,1019.13
2018-06-27T00:08:07.478Z,1019.12
2018-06-27T00:08:33.618Z,1019.18
2018-06-27T00:08:59.780Z,1019.13
2018-06-27T00:09:25.917Z,1019.16
2018-06-27T00:09:52.049Z,1019.15
2018-06-27T00:10:18.214Z,1019.17
2018-06-27T00:10:44.357Z,1019.18
2018-06-27T00:11:10.522Z,1019.17
2018-06-27T00:11:36.680Z,1019.17
2018-06-27T00:12:02.826Z,1019.16
2018-06-27T00:12:28.962Z,1019.16
2018-06-27T00:12:55.095Z,1019.17
2018-06-27T00:13:21.233Z,1019.2
2018-06-27T00:13:47.430Z,1019.15
2018-06-27T00:14:13.569Z,1019.15
2018-06-27T00:14:39.704Z,1019.15
2018-06-27T00:15:05.843Z,1019.14
2018-06-27T00:15:32.000Z,1019.16
2018-06-27T00:15:58.150Z,1019.15
2018-06-27T00:16:24.313Z,1019.15
2018-06-27T00:16:50.459Z,1019.17
2018-06-27T00:17:16.602Z,1019.18
2018-06-27T00:17:42.740Z,1019.18
2018-06-27T00:18:08.923Z,1019.16
2018-06-27T00:18:35.058Z,1019.18
2018-06-27T00:19:01.198Z,1019.16
2018-06-27T00:19:27.393Z,1019.16
2018-06-27T00:19:53.471Z,1019.15
2018-06-27T00:20:19.599Z,1019.18
2018-06-27T00:20:45.742Z,1019.18
2018-06-27T00:21:11.905Z,1019.16
2018-06-27T00:21:38.073Z,1019.13
2018-06-27T00:22:04.209Z,1019.13
2018-06-27T00:22:30.350Z,1019.13
2018-06-27T00:22:56.521Z,1019.13
2018-06-27T00:23:22.683Z,1019.12
2018-06-27T00:23:48.843Z,1019.12
2018-06-27T00:24:14.988Z,1019.17
2018-06-27T00:24:41.170Z,1019.16
2018-06-27T00:25:07.310Z,1019.12
2018-06-27T00:25:33.449Z,1019.13
2018-06-27T00:25:59.586Z,1019.16
2018-06-27T00:26:25.759Z,1019.13
2018-06-27T00:26:51.919Z,1019.15
2018-06-27T00:27:18.058Z,1019.13
2018-06-27T00:27:44.194Z,1019.16
2018-06-27T00:28:10.363Z,1019.17
2018-06-27T00:28:36.501Z,1019.15
2018-06-27T00:29:02.643Z,1019.19
2018-06-27T00:29:28.780Z,1019.17
2018-06-27T00:29:54.917Z,1019.14
2018-06-27T00:30:21.080Z,1019.14
2018-06-27T00:30:47.211Z,1019.13
2018-06-27T00:31:13.357Z,1019.13
2018-06-27T00:31:39.492Z,1019.17
2018-06-27T00:32:05.658Z,1019.15
2018-06-27T00:32:31.794Z,1019.11
2018-06-27T00:32:57.937Z,1019.12
2018-06-27T00:33:24.095Z,1019.13
2018-06-27T00:33:50.244Z,1019.12
2018-06-27T00:34:16.382Z,1019.1
2018-06-27T00:34:42.517Z,1019.14
2018-06-27T00:35:08.654Z,1019.16
2018-06-27T00:35:34.795Z,1019.16
2018-06-27T00:36:00.980Z,1019.13
2018-06-27T00:36:27.142Z,1019.18
2018-06-27T00:36:53.281Z,1019.14
2018-06-27T00:37:19.425Z,1019.16
2018-06-27T00:37:45.561Z,1019.1
2018-06-27T00:38:11.705Z,1019.15
2018-06-27T00:38:37.886Z,1019.19
2018-06-27T00:39:04.041Z,1019.15
2018-06-27T00:39:30.180Z,1019.1
2018-06-27T00:39:56.338Z,1019.12
2018-06-27T00:40:25.539Z,1019.14
2018-06-27T00:40:51.680Z,1019.13
2018-06-27T00:41:17.843Z,1019.13
2018-06-27T00:41:43.999Z,1019.15
2018-06-27T00:42:10.137Z,1019.13
2018-06-27T00:42:36.275Z,1019.13
2018-06-27T00:43:02.460Z,1019.11
2018-06-27T00:43:28.651Z,1019.11
2018-06-27T00:43:54.832Z,1019.11
2018-06-27T00:44:20.971Z,1019.09
2018-06-27T00:44:47.159Z,1019.09
2018-06-27T00:45:13.321Z,1019.12
2018-06-27T00:45:39.479Z,1019.06
2018-06-27T00:46:05.617Z,1019.06
2018-06-27T00:46:31.754Z,1019.1
2018-06-27T00:46:57.915Z,1019.11
2018-06-27T00:47:24.056Z,1019.1
2018-06-27T00:47:50.191Z,1019.05
2018-06-27T00:48:16.332Z,1019.08
2018-06-27T00:48:42.470Z,1019.09
2018-06-27T00:49:08.611Z,1019.11
2018-06-27T00:49:34.754Z,1019.09
2018-06-27T00:50:00.898Z,1019.07
2018-06-27T00:50:27.065Z,1019.08
2018-06-27T00:50:53.201Z,1019.09
2018-06-27T00:51:19.365Z,1019.06
2018-06-27T00:51:45.535Z,1019.07
2018-06-27T00:52:11.687Z,1019.05
2018-06-27T00:52:37.813Z,1019.04
2018-06-27T00:53:03.949Z,1019.06
2018-06-27T00:53:30.109Z,1019.06
2018-06-27T00:53:56.252Z,1019.1
2018-06-27T00:54:22.398Z,1019.07
2018-06-27T00:54:48.560Z,1019.06
2018-06-27T00:55:14.696Z,1019.07
2018-06-27T00:55:40.864Z,1019.06
2018-06-27T00:56:07.002Z,1019.09
2018-06-27T00:56:33.144Z,1019.06
2018-06-27T00:56:59.288Z,1019.08
2018-06-27T00:57:25.426Z,1019.06
2018-06-27T00:57:51.590Z,1019.07
2018-06-27T00:58:17.750Z,1019.04
2018-06-27T00:58:43.892Z,1019.04
2018-06-27T00:59:10.029Z,1019.06
2018-06-27T00:59:36.162Z,1019.03
2018-06-27T01:00:02.331Z,1019.04
2018-06-27T01:00:28.502Z,1019.05
2018-06-27T01:00:54.634Z,1019.06
2018-06-27T01:01:20.770Z,1019.02
2018-06-27T01:01:46.935Z,1019.07
2018-06-27T01:02:13.126Z,1019.05
2018-06-27T01:02:39.266Z,1019.05
2018-06-27T01:03:05.396Z,1019.05
2018-06-27T01:03:31.554Z,1019.01
2018-06-27T01:03:57.687Z,1019.04
2018-06-27T01:04:23.830Z,1019.05
2018-06-27T01:04:49.994Z,1019.08
2018-06-27T01:05:16.133Z,1019.04
2018-06-27T01:05:42.273Z,1019
2018-06-27T01:06:08.431Z,1019.07
2018-06-27T01:06:34.565Z,1019.02
2018-06-27T01:07:00.726Z,1019.06
2018-06-27T01:07:26.871Z,1019.03
2018-06-27T01:07:53.006Z,1019.06
2018-06-27T01:08:19.157Z,1019.04
2018-06-27T01:08:45.299Z,1019.03
2018-06-27T01:09:11.460Z,1018.99
2018-06-27T01:09:37.619Z,1019.01
2018-06-27T01:10:03.757Z,1019
2018-06-27T01:10:29.931Z,1019.03
2018-06-27T01:10:56.071Z,1019.03
2018-06-27T01:11:22.211Z,1019.04
2018-06-27T01:11:48.349Z,1019.06
2018-06-27T01:12:14.487Z,1019.05
2018-06-27T01:12:40.623Z,1019.04
2018-06-27T01:13:06.786Z,1019.08
2018-06-27T01:13:32.921Z,1019.04
2018-06-27T01:13:59.084Z,1019.05
2018-06-27T01:14:25.255Z,1019.05
2018-06-27T01:14:51.386Z,1019.07
2018-06-27T01:15:17.556Z,1019.07
2018-06-27T01:15:43.683Z,1019.07
2018-06-27T01:16:09.828Z,1019.08
2018-06-27T01:16:35.965Z,1019.06
2018-06-27T01:17:02.101Z,1019.08
2018-06-27T01:17:28.240Z,1019.06
2018-06-27T01:17:54.378Z,1019.07
2018-06-27T01:18:20.517Z,1019.12
2018-06-27T01:18:46.660Z,1019.07
2018-06-27T01:19:12.798Z,1019.1
2018-06-27T01:19:38.964Z,1019.08
2018-06-27T01:20:05.169Z,1019.09
2018-06-27T01:20:31.234Z,1019.06
2018-06-27T01:20:57.374Z,1019.06
2018-06-27T01:21:23.514Z,1019.05
2018-06-27T01:21:49.654Z,1019.07
2018-06-27T01:22:15.820Z,1019.05
2018-06-27T01:22:41.962Z,1019.08
2018-06-27T01:23:08.091Z,1019.07
2018-06-27T01:23:34.257Z,1019.05
2018-06-27T01:24:00.390Z,1019.04
2018-06-27T01:24:26.527Z,1019.04
2018-06-27T01:24:52.666Z,1019.06
2018-06-27T01:25:18.804Z,1019.06
2018-06-27T01:25:44.946Z,1019.09
2018-06-27T01:26:11.091Z,1019.05
2018-06-27T01:26:37.221Z,1019.1
2018-06-27T01:27:03.386Z,1019.11
2018-06-27T01:27:29.518Z,1019.06
2018-06-27T01:27:55.652Z,1019.08
2018-06-27T01:28:21.796Z,1019.08
2018-06-27T01:28:47.934Z,1019.07
2018-06-27T01:29:14.072Z,1019.09
2018-06-27T01:29:40.208Z,1019.11
2018-06-27T01:30:06.347Z,1019.11
2018-06-27T01:30:32.487Z,1019.06
2018-06-27T01:30:58.632Z,1019.08
2018-06-27T01:31:24.764Z,1019.09
2018-06-27T01:31:50.906Z,1019.12
2018-06-27T01:32:17.042Z,1019.09
2018-06-27T01:32:43.180Z,1019.11
2018-06-27T01:33:09.343Z,1019.09
2018-06-27T01:33:35.480Z,1019.08
2018-06-27T01:34:01.648Z,1019.1
2018-06-27T01:34:27.808Z,1019.08
2018-06-27T01:34:53.948Z,1019.12
2018-06-27T01:35:20.083Z,1019.16
2018-06-27T01:35:46.224Z,1019.14
2018-06-27T01:36:12.368Z,1019.12
2018-06-27T01:36:38.503Z,1019.12
2018-06-27T01:37:04.648Z,1019.13
2018-06-27T01:37:30.782Z,1019.15
2018-06-27T01:37:56.917Z,1019.12
2018-06-27T01:38:23.054Z,1019.13
2018-06-27T01:38:49.215Z,1019.14
2018-06-27T01:39:15.359Z,1019.16
2018-06-27T01:39:41.496Z,1019.19
2018-06-27T01:40:07.633Z,1019.16
2018-06-27T01:40:33.773Z,1019.16
2018-06-27T01:40:59.912Z,1019.19
2018-06-27T01:41:26.047Z,1019.2
2018-06-27T01:41:52.189Z,1019.2
2018-06-27T01:42:18.332Z,1019.21
2018-06-27T01:42:44.463Z,1019.19
2018-06-27T01:43:10.602Z,1019.2
2018-06-27T01:43:36.736Z,1019.2
2018-06-27T01:44:02.879Z,1019.21
2018-06-27T01:44:29.012Z,1019.19
2018-06-27T01:44:55.204Z,1019.21
2018-06-27T01:45:21.299Z,1019.21
2018-06-27T01:45:47.465Z,1019.25
2018-06-27T01:46:13.630Z,1019.21
2018-06-27T01:46:39.765Z,1019.22
2018-06-27T01:47:05.931Z,1019.21
2018-06-27T01:47:32.071Z,1019.2
2018-06-27T01:47:58.224Z,1019.21
2018-06-27T01:48:24.370Z,1019.23
2018-06-27T01:48:50.508Z,1019.2
2018-06-27T01:49:16.638Z,1019.23
2018-06-27T01:49:42.807Z,1019.21
2018-06-27T01:50:08.965Z,1019.21
2018-06-27T01:50:35.125Z,1019.22
2018-06-27T01:51:01.257Z,1019.25
2018-06-27T01:51:27.397Z,1019.24
2018-06-27T01:51:53.562Z,1019.24
2018-06-27T01:52:19.719Z,1019.24
2018-06-27T01:52:45.858Z,1019.21
2018-06-27T01:53:11.991Z,1019.23
2018-06-27T01:53:38.126Z,1019.26
2018-06-27T01:54:04.265Z,1019.25
2018-06-27T01:54:30.404Z,1019.24
2018-06-27T01:54:56.551Z,1019.25
2018-06-27T01:55:22.687Z,1019.25
2018-06-27T01:55:48.826Z,1019.28
2018-06-27T01:56:14.959Z,1019.24
2018-06-27T01:56:41.104Z,1019.26
2018-06-27T01:57:07.246Z,1019.28
2018-06-27T01:57:33.378Z,1019.27
2018-06-27T01:57:59.512Z,1019.23
2018-06-27T01:58:25.648Z,1019.28
2018-06-27T01:58:51.787Z,1019.27
2018-06-27T01:59:17.952Z,1019.25
2018-06-27T01:59:44.101Z,1019.26
2018-06-27T02:00:10.231Z,1019.26
2018-06-27T02:00:36.374Z,1019.27
2018-06-27T02:01:02.505Z,1019.25
2018-06-27T02:01:28.650Z,1019.27
2018-06-27T02:01:54.788Z,1019.24
2018-06-27T02:02:20.937Z,1019.24
2018-06-27T02:02:47.082Z,1019.23
2018-06-27T02:03:13.218Z,1019.25
2018-06-27T02:03:39.355Z,1019.31
2018-06-27T02:04:05.523Z,1019.27
2018-06-27T02:04:31.667Z,1019.27
2018-06-27T02:04:57.820Z,1019.28
2018-06-27T02:05:23.958Z,1019.28
2018-06-27T02:05:50.092Z,1019.27
2018-06-27T02:06:16.232Z,1019.3
2018-06-27T02:06:42.366Z,1019.34
2018-06-27T02:07:08.523Z,1019.27
2018-06-27T02:07:34.671Z,1019.3
2018-06-27T02:08:00.842Z,1019.3
2018-06-27T02:08:26.971Z,1019.32
2018-06-27T02:08:53.114Z,1019.36
2018-06-27T02:09:19.254Z,1019.28
2018-06-27T02:09:45.383Z,1019.31
2018-06-27T02:10:11.523Z,1019.32
2018-06-27T02:10:37.656Z,1019.33
2018-06-27T02:11:03.795Z,1019.31
2018-06-27T02:11:29.935Z,1019.3
2018-06-27T02:11:56.071Z,1019.31
2018-06-27T02:12:22.260Z,1019.34
2018-06-27T02:12:48.380Z,1019.32
2018-06-27T02:13:14.516Z,1019.31
2018-06-27T02:13:40.660Z,1019.34
2018-06-27T02:14:06.798Z,1019.3
2018-06-27T02:14:32.940Z,1019.28
2018-06-27T02:14:59.082Z,1019.32
2018-06-27T02:15:25.229Z,1019.36
2018-06-27T02:15:51.389Z,1019.32
2018-06-27T02:16:17.546Z,1019.33
2018-06-27T02:16:43.685Z,1019.32
2018-06-27T02:17:09.828Z,1019.3
2018-06-27T02:17:35.961Z,1019.33
2018-06-27T02:18:02.096Z,1019.31
2018-06-27T02:18:28.241Z,1019.29
2018-06-27T02:18:54.404Z,1019.3
2018-06-27T02:19:20.544Z,1019.31
2018-06-27T02:19:46.681Z,1019.29
2018-06-27T02:20:12.818Z,1019.29
2018-06-27T02:20:38.981Z,1019.29
2018-06-27T02:21:05.113Z,1019.26
2018-06-27T02:21:31.257Z,1019.31
2018-06-27T02:21:57.393Z,1019.28
2018-06-27T02:22:23.531Z,1019.3
2018-06-27T02:22:49.666Z,1019.31
2018-06-27T02:23:15.801Z,1019.3
2018-06-27T02:23:41.942Z,1019.33
2018-06-27T02:24:08.110Z,1019.33
2018-06-27T02:24:34.247Z,1019.33
2018-06-27T02:25:00.378Z,1019.34
2018-06-27T02:25:26.551Z,1019.34
2018-06-27T02:25:52.692Z,1019.33
2018-06-27T02:26:18.826Z,1019.34
2018-06-27T02:26:44.987Z,1019.31
2018-06-27T02:27:11.128Z,1019.34
2018-06-27T02:27:37.469Z,1019.34
2018-06-27T02:28:03.447Z,1019.37
2018-06-27T02:28:29.584Z,1019.35
2018-06-27T02:28:55.721Z,1019.36
2018-06-27T02:29:21.883Z,1019.32
2018-06-27T02:29:48.025Z,1019.33
2018-06-27T02:30:14.190Z,1019.35
2018-06-27T02:30:40.355Z,1019.34
2018-06-27T02:31:06.517Z,1019.34
2018-06-27T02:31:32.708Z,1019.34
2018-06-27T02:31:58.845Z,1019.31
2018-06-27T02:32:24.984Z,1019.34
2018-06-27T02:32:51.152Z,1019.35
2018-06-27T02:33:17.304Z,1019.3
2018-06-27T02:33:43.482Z,1019.31
2018-06-27T02:34:09.660Z,1019.32
2018-06-27T02:34:35.844Z,1019.32
2018-06-27T02:35:01.990Z,1019.34
2018-06-27T02:35:28.137Z,1019.31
2018-06-27T02:35:54.286Z,1019.3
2018-06-27T02:36:20.470Z,1019.29
2018-06-27T02:36:46.632Z,1019.29
2018-06-27T02:37:12.767Z,1019.34
2018-06-27T02:37:38.930Z,1019.29
2018-06-27T02:38:05.071Z,1019.3
2018-06-27T02:38:31.212Z,1019.31
2018-06-27T02:38:57.342Z,1019.32
2018-06-27T02:39:23.477Z,1019.28
2018-06-27T02:39:49.658Z,1019.32
2018-06-27T02:40:15.844Z,1019.29
2018-06-27T02:40:41.996Z,1019.31
2018-06-27T02:41:08.165Z,1019.31
2018-06-27T02:41:34.297Z,1019.33
2018-06-27T02:42:00.434Z,1019.32
2018-06-27T02:42:26.619Z,1019.3
2018-06-27T02:42:52.784Z,1019.37
2018-06-27T02:43:18.947Z,1019.34
2018-06-27T02:43:45.104Z,1019.36
2018-06-27T02:44:11.257Z,1019.36
2018-06-27T02:44:37.416Z,1019.35
2018-06-27T02:45:03.548Z,1019.34
2018-06-27T02:45:29.690Z,1019.35
2018-06-27T02:45:55.854Z,1019.35
2018-06-27T02:46:22.022Z,1019.34
2018-06-27T02:46:48.175Z,1019.37
2018-06-27T02:47:14.336Z,1019.32
2018-06-27T02:47:40.513Z,1019.36
2018-06-27T02:48:06.654Z,1019.33
2018-06-27T02:48:32.794Z,1019.35
2018-06-27T02:48:58.978Z,1019.34
2018-06-27T02:49:25.117Z,1019.35
2018-06-27T02:49:51.287Z,1019.36
2018-06-27T02:50:17.403Z,1019.33
2018-06-27T02:50:43.560Z,1019.31
2018-06-27T02:51:09.694Z,1019.34
2018-06-27T02:51:35.896Z,1019.34
2018-06-27T02:52:02.042Z,1019.34
2018-06-27T02:52:28.226Z,1019.34
2018-06-27T02:52:54.384Z,1019.38
2018-06-27T02:53:20.556Z,1019.34
2018-06-27T02:53:46.694Z,1019.3
2018-06-27T02:54:12.864Z,1019.34
2018-06-27T02:54:39.005Z,1019.34
2018-06-27T02:55:05.136Z,1019.34
2018-06-27T02:55:31.279Z,1019.34
2018-06-27T02:55:57.414Z,1019.4
2018-06-27T02:56:23.556Z,1019.35
2018-06-27T02:56:49.690Z,1019.36
2018-06-27T02:57:15.827Z,1019.35
2018-06-27T02:57:41.965Z,1019.35
2018-06-27T02:58:08.136Z,1019.36
2018-06-27T02:58:34.268Z,1019.33
2018-06-27T02:59:00.406Z,1019.34
2018-06-27T02:59:26.551Z,1019.35
2018-06-27T02:59:52.729Z,1019.35
2018-06-27T03:00:18.886Z,1019.36
2018-06-27T03:00:45.032Z,1019.35
2018-06-27T03:01:11.216Z,1019.35
2018-06-27T03:01:37.395Z,1019.32
2018-06-27T03:02:03.604Z,1019.34
2018-06-27T03:02:29.812Z,1019.31
2018-06-27T03:02:55.902Z,1019.34
2018-06-27T03:03:22.081Z,1019.31
2018-06-27T03:03:48.254Z,1019.3
2018-06-27T03:04:14.441Z,1019.31
2018-06-27T03:04:40.599Z,1019.32
2018-06-27T03:05:06.737Z,1019.35
2018-06-27T03:05:32.894Z,1019.35
2018-06-27T03:05:59.054Z,1019.35
2018-06-27T03:06:25.194Z,1019.3
2018-06-27T03:06:51.357Z,1019.32
2018-06-27T03:07:17.539Z,1019.35
2018-06-27T03:07:43.696Z,1019.31
2018-06-27T03:08:09.833Z,1019.32
2018-06-27T03:08:35.993Z,1019.32
2018-06-27T03:09:02.149Z,1019.33
2018-06-27T03:09:28.297Z,1019.31
2018-06-27T03:09:54.465Z,1019.31
2018-06-27T03:10:20.621Z,1019.31
2018-06-27T03:10:46.832Z,1019.3
2018-06-27T03:11:13.020Z,1019.3
2018-06-27T03:11:39.202Z,1019.33
2018-06-27T03:12:05.461Z,1019.31
2018-06-27T03:12:31.621Z,1019.32
2018-06-27T03:12:57.804Z,1019.32
2018-06-27T03:13:23.992Z,1019.3
2018-06-27T03:13:50.159Z,1019.3
2018-06-27T03:14:16.342Z,1019.34
2018-06-27T03:14:42.502Z,1019.33
2018-06-27T03:15:08.647Z,1019.33
2018-06-27T03:15:34.810Z,1019.34
2018-06-27T03:16:00.982Z,1019.35
2018-06-27T03:16:27.144Z,1019.35
2018-06-27T03:16:53.330Z,1019.34
2018-06-27T03:17:19.497Z,1019.32
2018-06-27T03:17:45.628Z,1019.31
2018-06-27T03:18:11.765Z,1019.36
2018-06-27T03:18:37.934Z,1019.34
2018-06-27T03:19:04.077Z,1019.32
2018-06-27T03:19:30.236Z,1019.33
2018-06-27T03:19:56.380Z,1019.34
2018-06-27T03:20:22.603Z,1019.34
2018-06-27T03:20:48.657Z,1019.36
2018-06-27T03:21:14.790Z,1019.35
2018-06-27T03:21:40.930Z,1019.36
2018-06-27T03:22:07.096Z,1019.39
2018-06-27T03:22:33.261Z,1019.37
2018-06-27T03:22:59.397Z,1019.35
2018-06-27T03:23:25.539Z,1019.38
2018-06-27T03:23:51.672Z,1019.4
2018-06-27T03:24:17.839Z,1019.38
2018-06-27T03:24:43.976Z,1019.39
2018-06-27T03:25:10.257Z,1019.38
2018-06-27T03:25:36.463Z,1019.37
2018-06-27T03:26:02.737Z,1019.4
2018-06-27T03:26:29.025Z,1019.43
2018-06-27T03:26:55.268Z,1019.4
2018-06-27T03:27:21.504Z,1019.45
2018-06-27T03:27:47.735Z,1019.42
2018-06-27T03:28:14.021Z,1019.41
2018-06-27T03:28:40.171Z,1019.39
2018-06-27T03:29:06.429Z,1019.39
2018-06-27T03:29:32.585Z,1019.41
2018-06-27T03:29:58.866Z,1019.46
2018-06-27T03:30:25.030Z,1019.39
2018-06-27T03:30:51.172Z,1019.38
2018-06-27T03:31:17.416Z,1019.41
2018-06-27T03:31:43.605Z,1019.38
2018-06-27T03:32:09.816Z,1019.4
2018-06-27T03:32:35.955Z,1019.39
2018-06-27T03:33:02.088Z,1019.39
2018-06-27T03:33:28.260Z,1019.42
2018-06-27T03:33:54.431Z,1019.39
2018-06-27T03:34:20.564Z,1019.38
2018-06-27T03:34:46.701Z,1019.4
2018-06-27T03:35:12.843Z,1019.36
2018-06-27T03:35:38.978Z,1019.37
2018-06-27T03:36:05.114Z,1019.38
2018-06-27T03:36:31.255Z,1019.37
2018-06-27T03:36:57.423Z,1019.4
2018-06-27T03:37:23.565Z,1019.37
2018-06-27T03:37:49.702Z,1019.41
2018-06-27T03:38:15.842Z,1019.4
2018-06-27T03:38:41.981Z,1019.37
2018-06-27T03:39:08.120Z,1019.38
2018-06-27T03:39:34.284Z,1019.36
2018-06-27T03:40:00.428Z,1019.37
2018-06-27T03:40:26.561Z,1019.35
2018-06-27T03:40:52.705Z,1019.37
2018-06-27T03:41:18.843Z,1019.34
2018-06-27T03:41:44.987Z,1019.34
2018-06-27T03:42:11.147Z,1019.36
2018-06-27T03:42:37.315Z,1019.36
2018-06-27T03:43:03.455Z,1019.34
2018-06-27T03:43:29.593Z,1019.35
2018-06-27T03:43:55.730Z,1019.37
2018-06-27T03:44:21.878Z,1019.33
2018-06-27T03:44:48.033Z,1019.37
2018-06-27T03:45:14.177Z,1019.35
2018-06-27T03:45:40.312Z,1019.35
2018-06-27T03:46:06.452Z,1019.36
2018-06-27T03:46:32.610Z,1019.37
2018-06-27T03:46:58.740Z,1019.36
2018-06-27T03:47:24.884Z,1019.38
2018-06-27T03:47:51.031Z,1019.37
2018-06-27T03:48:17.197Z,1019.34
2018-06-27T03:48:43.335Z,1019.37
2018-06-27T03:49:09.473Z,1019.36
2018-06-27T03:49:35.627Z,1019.38
2018-06-27T03:50:01.781Z,1019.35
2018-06-27T03:50:27.919Z,1019.37
2018-06-27T03:50:54.062Z,1019.38
2018-06-27T03:51:20.205Z,1019.41
2018-06-27T03:51:46.342Z,1019.4
2018-06-27T03:52:12.477Z,1019.38
2018-06-27T03:52:38.616Z,1019.39
2018-06-27T03:53:04.773Z,1019.39
2018-06-27T03:53:30.921Z,1019.38
2018-06-27T03:53:57.060Z,1019.39
2018-06-27T03:54:23.195Z,1019.37
2018-06-27T03:54:49.356Z,1019.38
2018-06-27T03:55:15.497Z,1019.39
2018-06-27T03:55:41.660Z,1019.37
2018-06-27T03:56:07.842Z,1019.36
2018-06-27T03:56:34.005Z,1019.4
2018-06-27T03:57:00.145Z,1019.38
2018-06-27T03:57:26.307Z,1019.36
2018-06-27T03:57:52.442Z,1019.33
2018-06-27T03:58:18.577Z,1019.32
2018-06-27T03:58:44.767Z,1019.37
2018-06-27T03:59:10.912Z,1019.4
2018-06-27T03:59:37.078Z,1019.38
2018-06-27T04:00:03.218Z,1019.38
2018-06-27T04:00:29.358Z,1019.4
2018-06-27T04:00:55.496Z,1019.38
2018-06-27T04:01:21.639Z,1019.38
2018-06-27T04:01:47.806Z,1019.4
2018-06-27T04:02:13.944Z,1019.37
2018-06-27T04:02:40.090Z,1019.4
2018-06-27T04:03:06.258Z,1019.37
2018-06-27T04:03:32.414Z,1019.38
2018-06-27T04:03:58.551Z,1019.37
2018-06-27T04:04:24.695Z,1019.39
2018-06-27T04:04:50.831Z,1019.35
2018-06-27T04:05:16.976Z,1019.34
2018-06-27T04:05:43.161Z,1019.32
2018-06-27T04:06:09.300Z,1019.34
2018-06-27T04:06:35.452Z,1019.33
2018-06-27T04:07:01.589Z,1019.29
2018-06-27T04:07:27.755Z,1019.33
2018-06-27T04:07:53.900Z,1019.35
2018-06-27T04:08:20.060Z,1019.37
2018-06-27T04:08:46.193Z,1019.37
2018-06-27T04:09:12.356Z,1019.36
2018-06-27T04:09:38.497Z,1019.39
2018-06-27T04:10:04.638Z,1019.36
2018-06-27T04:10:30.797Z,1019.36
2018-06-27T04:10:56.954Z,1019.39
2018-06-27T04:11:23.092Z,1019.37
2018-06-27T04:11:49.229Z,1019.4
2018-06-27T04:12:15.395Z,1019.37
2018-06-27T04:12:41.630Z,1019.38
2018-06-27T04:13:07.912Z,1019.4
2018-06-27T04:13:33.860Z,1019.39
2018-06-27T04:13:59.986Z,1019.4
2018-06-27T04:14:26.134Z,1019.41
2018-06-27T04:14:52.253Z,1019.39
2018-06-27T04:15:18.399Z,1019.41
2018-06-27T04:15:44.547Z,1019.39
2018-06-27T04:16:10.672Z,1019.41
2018-06-27T04:16:36.835Z,1019.38
2018-06-27T04:17:02.970Z,1019.41
2018-06-27T04:17:29.106Z,1019.4
2018-06-27T04:17:55.249Z,1019.43
2018-06-27T04:18:21.413Z,1019.42
2018-06-27T04:18:47.551Z,1019.38
2018-06-27T04:19:13.694Z,1019.44
2018-06-27T04:19:39.825Z,1019.41
2018-06-27T04:20:06.057Z,1019.42
2018-06-27T04:20:32.146Z,1019.41
2018-06-27T04:20:58.282Z,1019.46
2018-06-27T04:21:24.420Z,1019.46
2018-06-27T04:21:50.585Z,1019.47
2018-06-27T04:22:16.722Z,1019.43
2018-06-27T04:22:42.861Z,1019.41
2018-06-27T04:23:08.998Z,1019.49
2018-06-27T04:23:35.136Z,1019.44
2018-06-27T04:24:01.282Z,1019.49
2018-06-27T04:24:27.444Z,1019.47
2018-06-27T04:24:53.583Z,1019.5
2018-06-27T04:25:19.733Z,1019.51
2018-06-27T04:25:45.870Z,1019.49
2018-06-27T04:26:12.042Z,1019.49
2018-06-27T04:26:38.180Z,1019.56
2018-06-27T04:27:04.323Z,1019.51
2018-06-27T04:27:30.456Z,1019.52
2018-06-27T04:27:56.597Z,1019.52
2018-06-27T04:28:22.752Z,1019.51
2018-06-27T04:28:48.894Z,1019.56
2018-06-27T04:29:15.056Z,1019.52
2018-06-27T04:29:41.190Z,1019.54
2018-06-27T04:30:07.333Z,1019.53
2018-06-27T04:30:33.468Z,1019.5
2018-06-27T04:30:59.613Z,1019.51
2018-06-27T04:31:25.879Z,1019.51
2018-06-27T04:31:52.108Z,1019.5
2018-06-27T04:32:18.296Z,1019.52
2018-06-27T04:32:44.473Z,1019.52
2018-06-27T04:33:10.821Z,1019.52
2018-06-27T04:33:37.007Z,1019.54
2018-06-27T04:34:03.157Z,1019.55
2018-06-27T04:34:29.315Z,1019.56
2018-06-27T04:34:55.469Z,1019.54
2018-06-27T04:35:21.628Z,1019.55
2018-06-27T04:35:47.898Z,1019.53
2018-06-27T04:36:14.147Z,1019.54
2018-06-27T04:36:40.956Z,1019.55
2018-06-27T04:37:07.211Z,1019.52
2018-06-27T04:37:33.372Z,1019.56
2018-06-27T04:37:59.520Z,1019.56
2018-06-27T04:38:25.680Z,1019.6
2018-06-27T04:38:51.846Z,1019.59
2018-06-27T04:39:18.004Z,1019.62
2018-06-27T04:39:44.143Z,1019.63
2018-06-27T04:40:10.348Z,1019.61
2018-06-27T04:40:36.489Z,1019.63
2018-06-27T04:41:02.624Z,1019.62
2018-06-27T04:41:28.765Z,1019.62
2018-06-27T04:41:54.905Z,1019.66
2018-06-27T04:42:21.075Z,1019.65
2018-06-27T04:42:47.240Z,1019.7
2018-06-27T04:43:13.464Z,1019.7
2018-06-27T04:43:39.534Z,1019.69
2018-06-27T04:44:05.678Z,1019.63
2018-06-27T04:44:31.848Z,1019.62
2018-06-27T04:44:57.997Z,1019.64
2018-06-27T04:45:24.132Z,1019.6
2018-06-27T04:45:50.276Z,1019.66
2018-06-27T04:46:16.434Z,1019.61
2018-06-27T04:46:42.597Z,1019.63
2018-06-27T04:47:08.737Z,1019.65
2018-06-27T04:47:34.881Z,1019.6
2018-06-27T04:48:01.021Z,1019.61
2018-06-27T04:48:27.195Z,1019.61
2018-06-27T04:48:53.337Z,1019.62
2018-06-27T04:49:19.497Z,1019.64
2018-06-27T04:49:45.638Z,1019.62
2018-06-27T04:50:11.777Z,1019.66
2018-06-27T04:50:37.922Z,1019.64
2018-06-27T04:51:04.059Z,1019.66
2018-06-27T04:51:30.200Z,1019.69
2018-06-27T04:51:56.340Z,1019.69
2018-06-27T04:52:22.500Z,1019.65
2018-06-27T04:52:48.641Z,1019.65
2018-06-27T04:53:14.781Z,1019.59
2018-06-27T04:53:40.921Z,1019.62
2018-06-27T04:54:07.086Z,1019.61
2018-06-27T04:54:33.227Z,1019.61
2018-06-27T04:54:59.412Z,1019.66
2018-06-27T04:55:25.524Z,1019.65
2018-06-27T04:55:51.660Z,1019.57
2018-06-27T04:56:17.798Z,1019.58
2018-06-27T04:56:43.963Z,1019.59
2018-06-27T04:57:10.129Z,1019.6
2018-06-27T04:57:36.272Z,1019.61
2018-06-27T04:58:02.431Z,1019.62
2018-06-27T04:58:28.567Z,1019.59
2018-06-27T04:58:54.713Z,1019.6
2018-06-27T04:59:20.852Z,1019.62
2018-06-27T04:59:46.989Z,1019.61
2018-06-27T05:00:13.125Z,1019.63
2018-06-27T05:00:39.270Z,1019.65
2018-06-27T05:01:05.415Z,1019.64
2018-06-27T05:01:31.581Z,1019.66
2018-06-27T05:01:57.716Z,1019.7
2018-06-27T05:02:23.854Z,1019.7
2018-06-27T05:02:49.993Z,1019.7
2018-06-27T05:03:16.137Z,1019.69
2018-06-27T05:03:42.271Z,1019.68
2018-06-27T05:04:08.409Z,1019.69
2018-06-27T05:04:34.557Z,1019.7
2018-06-27T05:05:00.744Z,1019.7
2018-06-27T05:05:26.905Z,1019.69
2018-06-27T05:05:53.045Z,1019.69
2018-06-27T05:06:19.214Z,1019.71
2018-06-27T05:06:45.364Z,1019.73
2018-06-27T05:07:11.510Z,1019.76
2018-06-27T05:07:37.673Z,1019.76
2018-06-27T05:08:03.817Z,1019.77
2018-06-27T05:08:30.073Z,1019.77
2018-06-27T05:08:56.347Z,1019.77
2018-06-27T05:09:22.657Z,1019.79
2018-06-27T05:09:48.984Z,1019.79
2018-06-27T05:10:15.664Z,1019.81
2018-06-27T05:10:41.894Z,1019.77
2018-06-27T05:11:07.971Z,1019.74
2018-06-27T05:11:34.184Z,1019.78
2018-06-27T05:12:00.302Z,1019.78
2018-06-27T05:12:26.440Z,1019.79
2018-06-27T05:12:52.602Z,1019.77
2018-06-27T05:13:18.738Z,1019.77
2018-06-27T05:13:44.908Z,1019.81
2018-06-27T05:14:11.054Z,1019.76
2018-06-27T05:14:37.215Z,1019.8
2018-06-27T05:15:03.349Z,1019.75
2018-06-27T05:15:29.550Z,1019.76
2018-06-27T05:15:55.757Z,1019.8
2018-06-27T05:16:21.857Z,1019.76
2018-06-27T05:16:48.005Z,1019.74
2018-06-27T05:17:14.164Z,1019.74
2018-06-27T05:17:40.303Z,1019.75